METAR Data
IDs: Format: Raw Decoded Include TAF

Data at: 1348 UTC 20 Jul 2019

METAR for:KDNS (Denison Muni, IA, US)
Text:KDNS 201335Z AUTO 19008G16KT 10SM CLR 27/24 A2978 RMK AO2
Temperature: 27.0°C ( 81°F)
Dewpoint: 24.0°C ( 75°F) [RH = 84%]
Pressure (altimeter):29.78 inches Hg (1008.5 mb)
Winds:from the S (190 degrees) at 9 MPH (8 knots; 4.1 m/s) gusting to 18 MPH (16 knots; 8.2 m/s)
Visibility:10 or more sm (16+ km)
Ceiling:at least 12,000 feet AGL
Clouds:sky clear below 12,000 feet AGL
QC Flag:automated observation with no human augmentation